Hatsu Ethic — VQFS4 — position and weather

sailwx.info

Track history (hours):
 
Tides and Currents Weather Stations Pressure Air Temp Water Temp Dewpoint Dewpoint Depression Visibility Wind Speed Wind Dir Waves Ship Positions

Hatsu Ethic

Last reported at 2016-Apr-29 22:33 UTC. Time now 2016-Apr-29 23:38 UTC.
Position N 47°15' W 122°23'.

Type: Ship (hazmat cat D). MMSI: 235603000.

Date/timePositionNaut miles runAvg speedWind from/ knotsBaromVisibWave heightAir tempDewpointWater temp
2016-Apr-29 22:33N 47°15' W 122°23'0 0.0
2016-Apr-29 21:33N 47°15' W 122°23'3 2.7
2016-Apr-29 20:33N 47°17' W 122°26'1111.4
2016-Apr-29 19:33N 47°29' W 122°25'2020.0
2016-Apr-29 18:33N 47°49' W 122°27'1919.1
2016-Apr-29 17:33N 48°06' W 122°40'1918.8
2016-Apr-29 16:33N 48°12' W 123°07'1212.0
2016-Apr-29 15:33N 48°10' W 123°25'1514.7
2016-Apr-29 14:33N 48°13' W 123°46'5317.5
2016-Apr-29 11:33N 48°28' W 125°02'1818.1
2016-Apr-29 10:34N 48°29' W 125°29'1818.3
2016-Apr-29 09:34N 48°29' W 125°57'1818.3
2016-Apr-29 08:34N 48°29' W 126°24'  
Track history (hours):
 
Tides and Currents Weather Stations Pressure Air Temp Water Temp Dewpoint Dewpoint Depression Visibility Wind Speed Wind Dir Waves Ship Positions

Hatsu Ethic

Last reported at 2016-Apr-29 22:33 UTC. Time now 2016-Apr-29 23:38 UTC.
Position N 47°15' W 122°23'.

Type: Ship (hazmat cat D). MMSI: 235603000.

Date/timePositionNaut miles runAvg speedWind from/ knotsBaromVisibWave heightAir tempDewpointWater temp
2016-Apr-29 22:33N 47°15' W 122°23'0 0.0
2016-Apr-29 21:33N 47°15' W 122°23'3 2.7
2016-Apr-29 20:33N 47°17' W 122°26'1111.4
2016-Apr-29 19:33N 47°29' W 122°25'2020.0
2016-Apr-29 18:33N 47°49' W 122°27'1919.1
2016-Apr-29 17:33N 48°06' W 122°40'1918.8
2016-Apr-29 16:33N 48°12' W 123°07'1212.0
2016-Apr-29 15:33N 48°10' W 123°25'1514.7
2016-Apr-29 14:33N 48°13' W 123°46'5317.5
2016-Apr-29 11:33N 48°28' W 125°02'1818.1
2016-Apr-29 10:34N 48°29' W 125°29'1818.3
2016-Apr-29 09:34N 48°29' W 125°57'1818.3
2016-Apr-29 08:34N 48°29' W 126°24'  

Dump ship's entire track history